createdAt,value
2022-12-18T00:01:32.519Z,1.40
2022-12-18T00:04:03.949Z,1.90
2022-12-18T00:06:36.355Z,1.30
2022-12-18T00:09:04.693Z,1.60
2022-12-18T00:11:32.799Z,1.30
2022-12-18T00:14:02.707Z,1.50
2022-12-18T00:16:32.160Z,1.50
2022-12-18T00:19:07.569Z,1.50
2022-12-18T00:21:37.550Z,1.50
2022-12-18T00:24:07.711Z,1.40
2022-12-18T00:26:38.652Z,1.70
2022-12-18T00:29:16.049Z,1.60
2022-12-18T00:31:46.244Z,1.40
2022-12-18T00:34:16.698Z,1.50
2022-12-18T00:36:47.466Z,1.60
2022-12-18T00:39:16.473Z,1.50
2022-12-18T00:42:03.828Z,1.40
2022-12-18T00:44:41.980Z,1.40
2022-12-18T00:47:10.347Z,1.40
2022-12-18T00:49:40.514Z,1.30
2022-12-18T00:52:08.228Z,1.50
2022-12-18T00:54:36.827Z,1.40
2022-12-18T00:57:04.784Z,1.40
2022-12-18T00:59:33.156Z,1.70
2022-12-18T01:02:01.431Z,1.60
2022-12-18T01:04:34.247Z,1.60
2022-12-18T01:07:02.062Z,1.50
2022-12-18T01:09:30.620Z,1.50
2022-12-18T01:11:57.899Z,1.40
2022-12-18T01:14:27.208Z,1.20
2022-12-18T01:16:54.967Z,1.50
2022-12-18T01:19:23.561Z,1.20
2022-12-18T01:21:51.609Z,1.70
2022-12-18T01:24:22.300Z,1.50
2022-12-18T01:26:53.268Z,1.40
2022-12-18T01:29:25.494Z,1.40
2022-12-18T01:32:00.342Z,1.30
2022-12-18T01:34:30.675Z,1.40
2022-12-18T01:36:58.174Z,1.40
2022-12-18T01:39:25.308Z,1.40
2022-12-18T01:42:08.429Z,1.40
2022-12-18T01:44:47.838Z,1.50
2022-12-18T01:47:40.350Z,1.50
2022-12-18T01:50:32.773Z,1.50
2022-12-18T01:53:20.201Z,1.30
2022-12-18T01:55:54.100Z,1.80
2022-12-18T01:58:40.102Z,1.30
2022-12-18T02:01:10.886Z,1.20
2022-12-18T02:06:41.710Z,1.40
2022-12-18T02:09:27.855Z,1.60
2022-12-18T02:12:21.993Z,1.40
2022-12-18T02:15:04.179Z,1.50
2022-12-18T02:17:51.927Z,1.30
2022-12-18T02:20:26.787Z,1.20
2022-12-18T02:23:15.017Z,1.20
2022-12-18T02:26:21.442Z,1.00
2022-12-18T02:28:54.828Z,1.10
2022-12-18T02:31:30.014Z,1.40
2022-12-18T02:34:15.664Z,1.10
2022-12-18T02:36:46.756Z,1.40
2022-12-18T02:39:17.214Z,1.40
2022-12-18T02:41:56.919Z,1.20
2022-12-18T02:44:25.490Z,1.30
2022-12-18T02:46:55.777Z,1.30
2022-12-18T02:49:28.980Z,1.20
2022-12-18T02:52:26.183Z,1.20
2022-12-18T02:55:09.452Z,1.40
2022-12-18T02:57:40.721Z,1.10
2022-12-18T03:00:13.586Z,1.20
2022-12-18T03:02:58.654Z,1.50
2022-12-18T03:05:49.691Z,1.10
2022-12-18T03:08:25.271Z,1.10
2022-12-18T03:11:13.891Z,1.20
2022-12-18T03:13:50.451Z,1.30
2022-12-18T03:16:28.996Z,1.30
2022-12-18T03:18:58.472Z,0.90
2022-12-18T03:21:51.368Z,1.10
2022-12-18T03:24:23.068Z,1.20
2022-12-18T03:26:55.383Z,1.30
2022-12-18T03:30:08.676Z,1.20
2022-12-18T03:32:44.067Z,1.10
2022-12-18T03:35:15.851Z,1.20
2022-12-18T03:37:42.963Z,1.40
2022-12-18T03:40:10.766Z,1.30
2022-12-18T03:42:58.342Z,1.30
2022-12-18T03:45:32.891Z,1.20
2022-12-18T03:48:14.690Z,1.10
2022-12-18T03:51:03.092Z,1.20
2022-12-18T03:53:38.014Z,1.20
2022-12-18T03:56:07.257Z,1.60
2022-12-18T03:58:42.165Z,1.10
2022-12-18T04:01:19.615Z,1.00
2022-12-18T04:03:50.577Z,1.30
2022-12-18T04:06:19.859Z,1.10
2022-12-18T04:08:48.731Z,1.30
2022-12-18T04:11:18.375Z,1.20
2022-12-18T04:13:46.286Z,1.10
2022-12-18T04:16:31.309Z,1.10
2022-12-18T04:19:01.999Z,1.10
2022-12-18T04:21:30.671Z,1.10
2022-12-18T04:23:58.032Z,1.10
2022-12-18T04:26:26.174Z,1.30
2022-12-18T04:29:05.849Z,1.00
2022-12-18T04:31:32.967Z,1.30
2022-12-18T04:34:00.330Z,1.20
2022-12-18T04:36:29.266Z,1.00
2022-12-18T04:39:03.139Z,1.20
2022-12-18T04:41:32.266Z,1.10
2022-12-18T04:44:00.763Z,1.30
2022-12-18T04:46:28.101Z,1.40
2022-12-18T04:48:55.163Z,1.20
2022-12-18T04:51:26.847Z,1.10
2022-12-18T04:53:54.772Z,1.20
2022-12-18T04:56:22.482Z,1.10
2022-12-18T04:58:49.774Z,1.10
2022-12-18T05:01:21.076Z,1.20
2022-12-18T05:03:48.304Z,1.20
2022-12-18T05:06:19.613Z,1.20
2022-12-18T05:08:48.040Z,1.30
2022-12-18T05:11:21.304Z,1.50
2022-12-18T05:13:48.353Z,1.30
2022-12-18T05:16:16.671Z,1.10
2022-12-18T05:18:43.806Z,1.40
2022-12-18T05:21:10.778Z,1.50
2022-12-18T05:23:39.238Z,1.00
2022-12-18T05:26:08.875Z,1.20
2022-12-18T05:28:40.703Z,1.40
2022-12-18T05:31:08.163Z,1.10
2022-12-18T05:33:36.875Z,1.20
2022-12-18T05:36:09.567Z,1.50
2022-12-18T05:38:38.335Z,1.10
2022-12-18T05:41:06.687Z,1.20
2022-12-18T05:43:37.461Z,1.20
2022-12-18T05:46:12.697Z,1.10
2022-12-18T05:48:43.810Z,1.10
2022-12-18T05:51:16.358Z,1.30
2022-12-18T05:53:44.027Z,1.10
2022-12-18T05:56:20.889Z,1.30
2022-12-18T05:58:50.859Z,1.40
2022-12-18T06:01:21.414Z,1.40
2022-12-18T06:03:48.518Z,1.20
2022-12-18T06:06:25.755Z,1.10
2022-12-18T06:08:53.788Z,1.20
2022-12-18T06:11:23.422Z,1.60
2022-12-18T06:23:57.585Z,1.20
2022-12-18T06:26:29.477Z,1.10
2022-12-18T06:28:56.723Z,1.10
2022-12-18T06:31:23.951Z,1.10
2022-12-18T06:33:51.004Z,1.00
2022-12-18T06:36:18.012Z,1.00
2022-12-18T06:38:45.812Z,1.20
2022-12-18T06:41:16.496Z,1.20
2022-12-18T06:43:49.881Z,1.30
2022-12-18T06:46:17.267Z,1.30
2022-12-18T06:48:45.832Z,1.00
2022-12-18T06:51:23.757Z,1.20
2022-12-18T06:53:51.773Z,1.40
2022-12-18T06:56:18.849Z,1.10
2022-12-18T06:58:45.955Z,1.20
2022-12-18T07:01:16.948Z,1.10
2022-12-18T07:03:45.065Z,1.30
2022-12-18T07:06:19.384Z,1.30
2022-12-18T07:08:47.862Z,1.30
2022-12-18T07:11:15.666Z,1.20
2022-12-18T07:13:43.593Z,1.20
2022-12-18T07:16:20.866Z,1.30
2022-12-18T07:18:55.319Z,1.60
2022-12-18T07:21:23.645Z,1.00
2022-12-18T07:23:53.412Z,1.00
2022-12-18T07:26:23.095Z,1.10
2022-12-18T07:28:56.802Z,1.00
2022-12-18T07:31:25.226Z,1.20
2022-12-18T07:33:52.675Z,1.30
2022-12-18T07:36:23.005Z,1.20
2022-12-18T07:38:51.121Z,1.20
2022-12-18T07:41:21.834Z,1.20
2022-12-18T07:43:49.931Z,1.40
2022-12-18T07:46:17.962Z,1.10
2022-12-18T07:48:49.448Z,1.10
2022-12-18T07:51:21.399Z,1.30
2022-12-18T07:53:52.738Z,1.20
2022-12-18T07:56:28.673Z,1.40
2022-12-18T07:58:57.092Z,1.20
2022-12-18T08:01:28.761Z,1.40
2022-12-18T08:03:56.343Z,1.10
2022-12-18T08:06:24.664Z,1.20
2022-12-18T08:08:58.514Z,1.20
2022-12-18T08:11:30.766Z,1.40
2022-12-18T08:13:59.002Z,1.10
2022-12-18T08:16:26.127Z,1.20
2022-12-18T08:18:54.417Z,1.10
2022-12-18T08:21:30.329Z,1.10
2022-12-18T08:24:00.945Z,1.10
2022-12-18T08:26:30.751Z,1.20
2022-12-18T08:29:01.639Z,1.20
2022-12-18T08:31:31.183Z,1.40
2022-12-18T08:33:59.221Z,1.40
2022-12-18T08:36:27.673Z,1.40
2022-12-18T08:38:55.716Z,1.10
2022-12-18T08:41:23.677Z,1.30
2022-12-18T08:44:09.134Z,1.20
2022-12-18T08:46:39.858Z,1.20
2022-12-18T08:49:09.941Z,1.10
2022-12-18T08:51:39.158Z,1.20
2022-12-18T08:54:07.460Z,1.20
2022-12-18T08:56:35.347Z,1.10
2022-12-18T08:59:03.067Z,1.10
2022-12-18T09:01:30.947Z,1.30
2022-12-18T09:03:59.770Z,1.20
2022-12-18T09:06:30.233Z,1.10
2022-12-18T09:08:58.536Z,1.30
2022-12-18T09:11:28.094Z,1.20
2022-12-18T09:13:56.588Z,1.30
2022-12-18T09:16:30.390Z,1.40
2022-12-18T09:19:01.031Z,1.20
2022-12-18T09:21:35.132Z,1.30
2022-12-18T09:24:05.040Z,1.10
2022-12-18T09:26:34.436Z,1.30
2022-12-18T09:29:01.410Z,1.30
2022-12-18T09:31:28.617Z,1.50
2022-12-18T09:33:57.685Z,1.10
2022-12-18T09:36:25.015Z,1.20
2022-12-18T09:38:54.797Z,1.20
2022-12-18T09:41:45.533Z,1.10
2022-12-18T09:44:27.768Z,1.60
2022-12-18T09:47:10.653Z,1.40
2022-12-18T09:50:03.220Z,1.80
2022-12-18T09:52:37.486Z,1.20
2022-12-18T09:55:23.318Z,1.30
2022-12-18T09:57:56.159Z,1.30
2022-12-18T10:00:26.190Z,1.40
2022-12-18T10:02:58.107Z,1.60
2022-12-18T10:05:49.019Z,1.20
2022-12-18T10:09:01.419Z,1.20
2022-12-18T10:11:40.083Z,1.10
2022-12-18T10:14:46.515Z,1.20
2022-12-18T10:17:16.636Z,1.30
2022-12-18T10:19:54.328Z,1.50
2022-12-18T10:22:27.809Z,1.50
2022-12-18T10:25:17.085Z,1.40
2022-12-18T10:27:44.808Z,1.50
2022-12-18T10:30:21.066Z,1.70
2022-12-18T10:32:48.253Z,1.60
2022-12-18T10:35:23.497Z,1.20
2022-12-18T10:38:14.568Z,1.30
2022-12-18T10:40:59.829Z,1.60
2022-12-18T10:43:32.581Z,1.30
2022-12-18T10:46:11.576Z,1.50
2022-12-18T10:48:44.155Z,1.60
2022-12-18T10:51:27.211Z,1.50
2022-12-18T10:54:25.456Z,1.40
2022-12-18T10:56:52.534Z,1.60
2022-12-18T11:02:39.763Z,1.80
2022-12-18T11:05:28.818Z,1.40
2022-12-18T11:07:57.405Z,1.90
2022-12-18T11:10:37.193Z,1.90
2022-12-18T11:13:23.717Z,1.60
2022-12-18T11:15:53.463Z,1.90
2022-12-18T11:18:23.777Z,2.60
2022-12-18T11:21:14.732Z,1.90
2022-12-18T11:23:54.462Z,1.60
2022-12-18T11:26:23.033Z,2.00
2022-12-18T11:29:12.128Z,1.80
2022-12-18T11:31:39.448Z,1.80
2022-12-18T11:34:30.408Z,1.70
2022-12-18T11:37:01.382Z,1.90
2022-12-18T11:39:43.833Z,1.60
2022-12-18T11:42:35.836Z,1.50
2022-12-18T11:45:27.737Z,1.70
2022-12-18T11:48:03.569Z,1.50
2022-12-18T11:50:49.954Z,1.50
2022-12-18T11:53:17.684Z,1.70
2022-12-18T11:56:20.146Z,1.60
2022-12-18T11:58:53.608Z,1.90
2022-12-18T12:01:46.265Z,1.90
2022-12-18T12:04:44.540Z,1.90
2022-12-18T12:07:23.056Z,1.70
2022-12-18T12:10:29.447Z,1.90
2022-12-18T12:13:02.439Z,1.80
2022-12-18T12:16:10.187Z,2.00
2022-12-18T12:18:58.608Z,2.10
2022-12-18T12:21:31.889Z,1.70
2022-12-18T12:24:41.836Z,1.90
2022-12-18T12:27:23.282Z,1.70
2022-12-18T12:30:19.580Z,2.00
2022-12-18T12:33:18.765Z,2.10
2022-12-18T12:36:15.812Z,1.80
2022-12-18T12:38:53.386Z,1.90
2022-12-18T12:41:55.621Z,1.90
2022-12-18T12:44:37.184Z,2.60
2022-12-18T12:47:31.728Z,2.10
2022-12-18T12:50:16.353Z,1.80
2022-12-18T12:52:58.497Z,2.10
2022-12-18T12:55:34.289Z,2.00
2022-12-18T12:58:17.195Z,2.00
2022-12-18T13:01:16.221Z,1.90
2022-12-18T13:04:30.743Z,1.90
2022-12-18T13:07:11.853Z,1.80
2022-12-18T13:10:17.853Z,1.80
2022-12-18T13:13:11.099Z,1.80
2022-12-18T13:15:46.294Z,2.00
2022-12-18T13:18:23.936Z,1.50
2022-12-18T13:21:01.537Z,1.70
2022-12-18T13:23:38.208Z,1.60
2022-12-18T13:26:12.666Z,2.10
2022-12-18T13:28:49.089Z,1.90
2022-12-18T13:31:34.449Z,1.70
2022-12-18T13:34:27.820Z,1.60
2022-12-18T13:36:58.497Z,2.00
2022-12-18T13:39:57.933Z,1.70
2022-12-18T13:42:49.871Z,2.10
2022-12-18T13:45:43.822Z,1.90
2022-12-18T13:48:25.696Z,1.70
2022-12-18T13:51:05.076Z,1.70
2022-12-18T13:54:16.401Z,2.00
2022-12-18T13:56:49.582Z,1.90
2022-12-18T13:59:38.606Z,2.10
2022-12-18T14:02:22.651Z,2.00
2022-12-18T14:05:03.864Z,1.70
2022-12-18T14:07:41.544Z,1.80
2022-12-18T14:10:44.380Z,1.70
2022-12-18T14:13:11.115Z,1.80
2022-12-18T14:15:44.682Z,1.70
2022-12-18T14:18:23.913Z,1.70
2022-12-18T14:21:03.545Z,2.00
2022-12-18T14:23:40.398Z,2.10
2022-12-18T14:26:31.324Z,1.60
2022-12-18T14:29:02.358Z,1.50
2022-12-18T14:31:33.042Z,1.90
2022-12-18T14:34:03.226Z,1.70
2022-12-18T14:36:31.143Z,1.60
2022-12-18T14:39:02.464Z,1.70
2022-12-18T14:41:32.607Z,1.70
2022-12-18T14:44:08.146Z,1.70
2022-12-18T14:46:41.179Z,1.80
2022-12-18T14:49:34.697Z,1.50
2022-12-18T14:52:08.138Z,1.60
2022-12-18T14:57:27.951Z,1.50
2022-12-18T15:00:06.989Z,1.80
2022-12-18T15:02:37.750Z,1.80
2022-12-18T15:05:14.018Z,1.60
2022-12-18T15:07:44.315Z,1.50
2022-12-18T15:10:44.151Z,1.70
2022-12-18T15:13:24.348Z,1.40
2022-12-18T15:15:53.130Z,1.60
2022-12-18T15:18:24.866Z,1.60
2022-12-18T15:20:56.097Z,1.60
2022-12-18T15:23:30.074Z,1.50
2022-12-18T15:26:07.065Z,2.10
2022-12-18T15:29:11.391Z,1.50
2022-12-18T15:31:44.616Z,1.70
2022-12-18T15:34:15.839Z,1.80
2022-12-18T15:36:44.695Z,1.30
2022-12-18T15:39:13.393Z,1.70
2022-12-18T15:42:01.943Z,1.90
2022-12-18T15:44:29.501Z,1.50
2022-12-18T15:46:59.491Z,1.70
2022-12-18T15:49:30.051Z,1.50
2022-12-18T15:52:02.860Z,1.70
2022-12-18T15:54:49.382Z,1.60
2022-12-18T15:57:28.357Z,1.40
2022-12-18T15:59:59.596Z,1.70
2022-12-18T16:02:29.142Z,1.70
2022-12-18T16:04:58.490Z,1.50
2022-12-18T16:07:29.141Z,1.60
2022-12-18T16:09:58.753Z,1.30
2022-12-18T16:12:27.792Z,1.40
2022-12-18T16:14:56.421Z,1.60
2022-12-18T16:17:23.872Z,1.40
2022-12-18T16:19:51.315Z,1.60
2022-12-18T16:22:28.336Z,1.50
2022-12-18T16:24:57.269Z,1.40
2022-12-18T16:27:29.787Z,1.20
2022-12-18T16:29:59.286Z,1.40
2022-12-18T16:32:28.959Z,1.30
2022-12-18T16:35:04.103Z,1.70
2022-12-18T16:37:31.996Z,1.50
2022-12-18T16:39:59.058Z,1.50
2022-12-18T16:42:26.293Z,1.40
2022-12-18T16:44:54.164Z,1.70
2022-12-18T16:47:21.873Z,1.40
2022-12-18T16:49:53.024Z,1.30
2022-12-18T16:52:21.522Z,1.20
2022-12-18T16:54:49.634Z,1.30
2022-12-18T16:57:20.280Z,1.60
2022-12-18T16:59:49.513Z,1.50
2022-12-18T17:02:21.843Z,1.40
2022-12-18T17:04:53.549Z,1.40
2022-12-18T17:07:22.986Z,1.40
2022-12-18T17:09:54.309Z,1.40
2022-12-18T17:12:24.062Z,1.30
2022-12-18T17:14:53.634Z,1.30
2022-12-18T17:17:24.270Z,1.50
2022-12-18T17:19:57.974Z,1.50
2022-12-18T17:22:26.383Z,1.70
2022-12-18T17:24:55.635Z,1.40
2022-12-18T17:27:23.814Z,1.30
2022-12-18T17:29:53.737Z,1.40
2022-12-18T17:32:21.806Z,1.30
2022-12-18T17:34:51.945Z,1.30
2022-12-18T17:37:20.899Z,1.40
2022-12-18T17:39:51.244Z,1.40
2022-12-18T17:42:20.140Z,1.50
2022-12-18T17:44:47.180Z,1.40
2022-12-18T17:47:17.514Z,1.60
2022-12-18T17:49:48.208Z,1.40
2022-12-18T17:52:15.587Z,1.30
2022-12-18T17:54:46.466Z,1.50
2022-12-18T17:57:15.531Z,1.40
2022-12-18T17:59:43.850Z,1.40
2022-12-18T18:02:12.714Z,1.30
2022-12-18T18:04:41.118Z,1.40
2022-12-18T18:07:11.332Z,1.40
2022-12-18T18:09:39.345Z,1.40
2022-12-18T18:12:25.480Z,1.40
2022-12-18T18:14:55.339Z,1.30
2022-12-18T18:17:24.467Z,1.30
2022-12-18T18:20:01.764Z,1.40
2022-12-18T18:22:29.080Z,1.20
2022-12-18T18:24:56.776Z,1.20
2022-12-18T18:27:24.315Z,1.40
2022-12-18T18:29:54.911Z,1.50
2022-12-18T18:32:23.442Z,1.10
2022-12-18T18:34:55.198Z,1.30
2022-12-18T18:37:22.361Z,1.40
2022-12-18T18:39:49.384Z,1.30
2022-12-18T18:42:17.032Z,1.30
2022-12-18T18:44:49.038Z,1.30
2022-12-18T18:47:17.747Z,1.20
2022-12-18T18:49:46.612Z,1.50
2022-12-18T18:52:13.878Z,1.30
2022-12-18T18:54:57.102Z,1.30
2022-12-18T18:57:30.511Z,1.30
2022-12-18T19:00:10.714Z,1.30
2022-12-18T19:02:43.020Z,1.50
2022-12-18T19:05:10.456Z,1.40
2022-12-18T19:07:41.182Z,1.40
2022-12-18T19:10:10.502Z,1.30
2022-12-18T19:12:56.941Z,1.20
2022-12-18T19:15:25.583Z,1.20
2022-12-18T19:17:53.624Z,1.30
2022-12-18T19:20:22.908Z,1.40
2022-12-18T19:22:55.545Z,1.30
2022-12-18T19:25:40.147Z,1.20
2022-12-18T19:28:18.965Z,1.70
2022-12-18T19:30:59.364Z,1.50
2022-12-18T19:33:42.830Z,2.00
2022-12-18T19:36:20.477Z,1.40
2022-12-18T19:38:56.288Z,1.60
2022-12-18T19:41:31.082Z,1.40
2022-12-18T19:44:08.214Z,1.30
2022-12-18T19:46:42.049Z,1.30
2022-12-18T19:49:17.337Z,1.60
2022-12-18T19:51:46.932Z,1.60
2022-12-18T19:54:17.391Z,1.70
2022-12-18T19:56:46.176Z,1.50
2022-12-18T19:59:14.002Z,1.30
2022-12-18T20:01:44.561Z,1.70
2022-12-18T20:04:12.927Z,1.80
2022-12-18T20:06:47.234Z,1.40
2022-12-18T20:09:15.392Z,1.40
2022-12-18T20:11:45.502Z,1.40
2022-12-18T20:14:19.597Z,1.30
2022-12-18T20:17:01.199Z,1.60
2022-12-18T20:19:33.806Z,1.60
2022-12-18T20:22:02.526Z,1.70
2022-12-18T20:24:29.913Z,1.20
2022-12-18T20:27:00.744Z,1.40
2022-12-18T20:29:28.226Z,1.60
2022-12-18T20:31:56.601Z,1.80
2022-12-18T20:34:24.345Z,1.50
2022-12-18T20:36:52.298Z,1.70
2022-12-18T20:39:19.564Z,1.30
2022-12-18T20:41:50.066Z,1.50
2022-12-18T20:44:22.644Z,1.60
2022-12-18T20:46:55.409Z,1.70
2022-12-18T20:49:26.920Z,1.70
2022-12-18T20:52:09.511Z,1.60
2022-12-18T20:54:36.566Z,1.70
2022-12-18T20:57:06.633Z,1.70
2022-12-18T20:59:33.622Z,1.60
2022-12-18T21:02:01.236Z,1.80
2022-12-18T21:04:31.665Z,2.00
2022-12-18T21:07:02.730Z,1.50
2022-12-18T21:09:37.558Z,1.60
2022-12-18T21:12:34.978Z,1.70
2022-12-18T21:15:14.674Z,1.50
2022-12-18T21:17:44.652Z,1.60
2022-12-18T21:20:17.793Z,1.60
2022-12-18T21:22:54.985Z,1.80
2022-12-18T21:25:27.261Z,1.90
2022-12-18T21:28:02.251Z,1.40
2022-12-18T21:30:40.080Z,1.70
2022-12-18T21:33:07.504Z,2.00
2022-12-18T21:35:34.384Z,1.60
2022-12-18T21:38:02.700Z,2.00
2022-12-18T21:40:34.163Z,1.80
2022-12-18T21:43:21.025Z,1.50
2022-12-18T21:45:49.644Z,2.00
2022-12-18T21:48:16.949Z,2.30
2022-12-18T21:50:44.103Z,3.40
2022-12-18T21:53:22.426Z,4.80
2022-12-18T21:55:58.890Z,6.60
2022-12-18T21:58:26.371Z,8.10
2022-12-18T22:00:53.978Z,8.70
2022-12-18T22:03:24.222Z,10.30
2022-12-18T22:06:07.068Z,10.90
2022-12-18T22:08:36.760Z,12.10
2022-12-18T22:11:13.536Z,12.80
2022-12-18T22:13:40.665Z,13.10
2022-12-18T22:16:08.933Z,13.30
2022-12-18T22:18:36.357Z,13.60
2022-12-18T22:21:06.919Z,13.90
2022-12-18T22:23:34.875Z,15.20
2022-12-18T22:26:02.008Z,14.40
2022-12-18T22:28:51.886Z,15.20
2022-12-18T22:31:21.859Z,15.00
2022-12-18T22:33:49.489Z,14.20
2022-12-18T22:36:16.781Z,15.80
2022-12-18T22:38:47.184Z,15.80
2022-12-18T22:41:14.455Z,14.60
2022-12-18T22:43:45.557Z,14.90
2022-12-18T22:46:17.915Z,14.90
2022-12-18T22:48:45.368Z,15.50
2022-12-18T22:51:18.045Z,15.70
2022-12-18T22:53:45.712Z,14.90
2022-12-18T22:56:20.229Z,14.70
2022-12-18T22:59:09.349Z,14.90
2022-12-18T23:01:38.236Z,14.90
2022-12-18T23:04:11.448Z,14.10
2022-12-18T23:06:44.201Z,13.50
2022-12-18T23:09:20.071Z,13.60
2022-12-18T23:11:48.515Z,13.60
2022-12-18T23:14:15.653Z,13.50
2022-12-18T23:16:42.805Z,14.80
2022-12-18T23:19:12.166Z,14.10
2022-12-18T23:21:39.570Z,13.60
2022-12-18T23:24:06.897Z,13.50
2022-12-18T23:26:34.356Z,13.10
2022-12-18T23:29:01.846Z,13.30
2022-12-18T23:31:39.743Z,12.60
2022-12-18T23:34:07.640Z,12.80
2022-12-18T23:36:45.541Z,12.50
2022-12-18T23:39:26.198Z,12.80
2022-12-18T23:41:58.306Z,12.50
2022-12-18T23:44:25.746Z,12.80
2022-12-18T23:46:53.054Z,12.30
2022-12-18T23:49:20.105Z,12.30
2022-12-18T23:51:47.172Z,12.10
2022-12-18T23:54:14.356Z,12.80
2022-12-18T23:56:41.445Z,12.20
2022-12-18T23:59:08.408Z,11.30
